Time;durP1;ratioP1;P1;durP2;ratioP2;P2;SDS_P1;SDS_P2;PMS_P1;PMS_P2;Temp;Humidity;BMP_temperature;BMP_pressure;BME280_temperature;BME280_humidity;BME280_pressure;Samples;Min_cycle;Max_cycle;Signal;HPM_P1;HPM_P2
2021/03/02 00:01:27;;;;;;;17.23;8.23;;;-0.30;99.90;;;;;;8382848;28;20070;-70
2021/03/02 00:05:28;;;;;;;19.48;8.82;;;-0.40;99.90;;;;;;8406470;28;20139;-70
2021/03/02 00:09:29;;;;;;;20.77;8.50;;;-0.50;99.90;;;;;;8397854;28;20024;-70
2021/03/02 00:13:31;;;;;;;19.27;8.38;;;-0.50;99.90;;;;;;8420152;28;20066;-71
2021/03/02 00:17:39;;;;;;;17.95;8.38;;;-0.30;99.90;;;;;;8388649;28;20031;-71
2021/03/02 00:21:49;;;;;;;16.90;7.97;;;-0.40;99.90;;;;;;8401147;28;20012;-70
2021/03/02 00:25:54;;;;;;;22.65;9.07;;;-0.60;99.90;;;;;;8403684;28;20103;-70
2021/03/02 00:29:54;;;;;;;16.50;8.15;;;-0.30;99.90;;;;;;8396165;28;20039;-70
2021/03/02 00:33:55;;;;;;;18.88;8.60;;;-0.30;99.90;;;;;;8396921;28;20043;-70
2021/03/02 00:37:55;;;;;;;18.38;8.77;;;-0.70;99.90;;;;;;8397937;28;20086;-70
2021/03/02 00:41:56;;;;;;;19.92;9.10;;;-0.80;99.90;;;;;;8379716;28;20506;-70
2021/03/02 00:45:57;;;;;;;23.52;10.07;;;-1.10;99.90;;;;;;8378039;28;20024;-71
2021/03/02 00:49:57;;;;;;;18.45;8.38;;;-1.00;99.90;;;;;;8397019;28;20144;-70
2021/03/02 00:53:58;;;;;;;17.15;8.25;;;-0.90;99.90;;;;;;8400504;28;20024;-70
2021/03/02 00:57:59;;;;;;;17.73;8.52;;;-0.80;99.90;;;;;;8414568;28;20024;-69
2021/03/02 01:01:59;;;;;;;18.20;9.52;;;-0.60;99.90;;;;;;8415202;28;20095;-70
2021/03/02 01:06:00;;;;;;;17.45;9.02;;;-0.50;99.90;;;;;;8390381;28;20487;-70
2021/03/02 01:10:05;;;;;;;18.15;9.20;;;-0.50;99.90;;;;;;8399223;28;20025;-70
2021/03/02 01:14:06;;;;;;;17.75;8.80;;;-0.70;99.90;;;;;;8396660;28;20016;-70
2021/03/02 01:18:07;;;;;;;19.10;8.63;;;-0.70;99.90;;;;;;8394435;28;20040;-70
2021/03/02 01:22:07;;;;;;;21.40;9.40;;;-0.70;99.90;;;;;;8376462;28;20032;-70
2021/03/02 01:26:08;;;;;;;17.67;8.63;;;-1.00;99.90;;;;;;8376538;28;20036;-70
2021/03/02 01:30:11;;;;;;;19.70;8.45;;;-1.20;99.90;;;;;;8394460;28;20491;-70
2021/03/02 01:34:12;;;;;;;20.05;9.00;;;-1.30;99.90;;;;;;8377035;28;20433;-70
2021/03/02 01:38:12;;;;;;;19.52;9.07;;;-1.10;99.90;;;;;;8377742;28;20025;-70
2021/03/02 01:42:13;;;;;;;18.40;8.18;;;-1.30;99.90;;;;;;8377151;28;20445;-70
2021/03/02 01:46:14;;;;;;;16.63;7.95;;;-1.40;99.90;;;;;;8400468;28;20031;-68
2021/03/02 01:50:14;;;;;;;16.17;8.25;;;-1.50;99.90;;;;;;8385403;28;20039;-68
2021/03/02 01:54:15;;;;;;;19.00;7.95;;;-1.10;99.90;;;;;;8403881;28;20024;-68
2021/03/02 01:58:16;;;;;;;21.50;7.78;;;-1.00;99.90;;;;;;8385703;28;20024;-69
2021/03/02 02:02:25;;;;;;;17.60;7.40;;;-1.30;99.90;;;;;;8386284;28;20119;-69
2021/03/02 02:06:48;;;;;;;13.82;7.05;;;-1.40;99.90;;;;;;8385799;28;20052;-69
2021/03/02 02:10:58;;;;;;;15.48;7.40;;;-1.40;99.90;;;;;;8388585;28;20096;-69
2021/03/02 02:15:09;;;;;;;21.27;7.18;;;-1.20;99.90;;;;;;8418195;28;20103;-69
2021/03/02 02:19:22;;;;;;;16.15;7.53;;;-1.10;99.90;;;;;;8404062;28;20261;-67
2021/03/02 02:23:35;;;;;;;16.23;7.60;;;-1.20;99.90;;;;;;8387957;28;20024;-69
2021/03/02 02:27:37;;;;;;;14.35;7.55;;;-1.40;99.90;;;;;;8428267;28;20050;-69
2021/03/02 02:31:38;;;;;;;14.82;7.68;;;-1.70;99.90;;;;;;8436747;28;20020;-69
2021/03/02 02:35:42;;;;;;;18.13;8.00;;;-1.60;99.90;;;;;;8437571;28;20115;-69
2021/03/02 02:39:43;;;;;;;21.17;7.90;;;-1.60;99.90;;;;;;8437915;28;20058;-68
2021/03/02 02:43:44;;;;;;;19.17;8.77;;;-1.60;99.90;;;;;;8437601;28;20024;-69
2021/03/02 02:47:46;;;;;;;18.92;8.55;;;-1.70;99.90;;;;;;8438187;28;20153;-68
2021/03/02 02:51:47;;;;;;;18.10;8.13;;;-1.60;99.90;;;;;;8408973;28;20028;-69
2021/03/02 02:56:02;;;;;;;17.65;8.20;;;-1.50;99.90;;;;;;8384014;28;20672;-69
2021/03/02 03:00:03;;;;;;;19.02;8.15;;;-1.50;99.90;;;;;;8383962;28;20558;-69
2021/03/02 03:04:07;;;;;;;18.10;8.68;;;-1.60;99.90;;;;;;8384793;28;20050;-69
2021/03/02 03:08:20;;;;;;;16.80;7.80;;;-1.50;99.90;;;;;;8403334;28;20029;-69
2021/03/02 03:12:24;;;;;;;16.98;7.20;;;-1.80;99.90;;;;;;8385126;28;20106;-68
2021/03/02 03:16:25;;;;;;;15.20;7.00;;;-1.80;99.90;;;;;;8403641;28;20025;-68
2021/03/02 03:20:26;;;;;;;13.95;6.82;;;-1.80;99.90;;;;;;8403286;28;20039;-69
2021/03/02 03:24:28;;;;;;;19.65;6.97;;;-2.00;99.90;;;;;;8401689;28;20021;-69
2021/03/02 03:28:30;;;;;;;14.23;6.93;;;-2.00;99.90;;;;;;8401991;28;20060;-68
2021/03/02 03:32:32;;;;;;;13.50;6.72;;;-2.00;99.90;;;;;;8384938;28;20055;-68
2021/03/02 03:36:34;;;;;;;19.40;7.60;;;-2.00;99.90;;;;;;8404740;22;20519;-65
2021/03/02 03:40:35;;;;;;;15.57;7.28;;;-1.80;99.90;;;;;;8357793;28;20037;-67
2021/03/02 03:44:36;;;;;;;15.82;7.88;;;-2.00;99.90;;;;;;8357804;28;20114;-67
2021/03/02 03:48:37;;;;;;;18.77;8.73;;;-2.00;99.90;;;;;;8359382;28;20037;-65
2021/03/02 03:52:41;;;;;;;16.13;8.15;;;-2.10;99.90;;;;;;8357883;28;20127;-66
2021/03/02 03:56:43;;;;;;;16.55;8.70;;;-2.00;99.90;;;;;;8371838;28;20401;-66
2021/03/02 04:00:44;;;;;;;16.27;7.85;;;-2.00;99.90;;;;;;8391749;28;20025;-66
2021/03/02 04:04:46;;;;;;;16.27;7.70;;;-2.10;99.90;;;;;;8397825;28;20060;-66
2021/03/02 04:08:47;;;;;;;13.85;7.32;;;-1.90;99.90;;;;;;8398233;28;20025;-66
2021/03/02 04:12:48;;;;;;;18.33;8.50;;;-1.90;99.90;;;;;;8398439;28;20025;-66
2021/03/02 04:16:48;;;;;;;17.75;8.60;;;-2.00;99.90;;;;;;8396737;28;20066;-67
2021/03/02 04:20:49;;;;;;;21.92;9.43;;;-2.20;99.90;;;;;;8395592;28;20036;-66
2021/03/02 04:24:50;;;;;;;20.27;10.05;;;-2.20;99.90;;;;;;8395641;28;20395;-66
2021/03/02 04:28:50;;;;;;;14.10;7.32;;;-2.30;99.90;;;;;;8393177;28;20377;-65
2021/03/02 04:32:51;;;;;;;17.92;9.90;;;-2.10;99.90;;;;;;8392666;28;20025;-67
2021/03/02 04:36:51;;;;;;;20.08;8.80;;;-2.00;99.90;;;;;;8396319;28;20078;-66
2021/03/02 04:40:52;;;;;;;24.73;9.15;;;-2.50;99.90;;;;;;8395991;28;20481;-67
2021/03/02 04:44:53;;;;;;;26.13;8.13;;;-2.70;99.90;;;;;;8397300;28;20029;-66
2021/03/02 04:48:53;;;;;;;19.55;9.07;;;-2.90;99.90;;;;;;8396890;28;20168;-65
2021/03/02 04:52:54;;;;;;;20.27;8.98;;;-2.70;99.90;;;;;;8395534;28;20111;-66
2021/03/02 04:56:54;;;;;;;16.15;7.75;;;-2.60;99.90;;;;;;8394815;28;20081;-66
2021/03/02 05:00:55;;;;;;;18.77;9.35;;;-2.50;99.90;;;;;;8394170;28;20021;-65
2021/03/02 05:04:55;;;;;;;22.48;8.95;;;-2.60;99.90;;;;;;8391065;28;20016;-65
2021/03/02 05:08:56;;;;;;;20.92;9.07;;;-2.50;99.90;;;;;;8375688;28;20021;-65
2021/03/02 05:12:56;;;;;;;23.00;10.05;;;-2.40;99.90;;;;;;8380151;28;20398;-66
2021/03/02 05:16:57;;;;;;;21.48;10.00;;;-2.70;99.90;;;;;;8394956;28;20032;-67
2021/03/02 05:20:57;;;;;;;24.50;10.00;;;-2.50;99.90;;;;;;8394667;28;20119;-67
2021/03/02 05:24:58;;;;;;;23.35;9.63;;;-2.40;99.90;;;;;;8394210;28;20521;-64
2021/03/02 05:28:59;;;;;;;22.13;9.45;;;-2.50;99.90;;;;;;8420190;28;20036;-66
2021/03/02 05:32:59;;;;;;;58.17;25.05;;;-2.70;99.90;;;;;;8387836;28;20021;-66
2021/03/02 05:37:00;;;;;;;34.83;17.23;;;-2.60;99.90;;;;;;8388318;28;20037;-66
2021/03/02 05:41:03;;;;;;;35.13;16.92;;;-2.60;99.90;;;;;;8383259;28;20033;-65
2021/03/02 05:45:05;;;;;;;23.92;9.52;;;-2.70;99.90;;;;;;8374366;28;20027;-69
2021/03/02 05:49:05;;;;;;;16.77;8.55;;;-2.80;99.90;;;;;;8359948;28;20529;-67
2021/03/02 05:53:07;;;;;;;22.10;9.27;;;-2.70;99.90;;;;;;8379208;28;20033;-67
2021/03/02 05:57:07;;;;;;;25.50;9.30;;;-2.80;99.90;;;;;;8392655;28;20386;-67
2021/03/02 06:01:08;;;;;;;15.48;7.88;;;-2.70;99.90;;;;;;8392077;28;20027;-67
2021/03/02 06:05:09;;;;;;;19.73;8.43;;;-2.70;99.90;;;;;;8392011;28;20047;-67
2021/03/02 06:09:10;;;;;;;20.02;9.18;;;-2.90;99.90;;;;;;8392482;28;20094;-68
2021/03/02 06:13:10;;;;;;;19.77;9.30;;;-2.90;99.90;;;;;;8394406;28;20040;-67
2021/03/02 06:17:11;;;;;;;24.80;9.45;;;-2.90;99.90;;;;;;8394117;28;20108;-68
2021/03/02 06:21:12;;;;;;;24.10;10.60;;;-2.70;99.90;;;;;;8391557;28;20035;-67
2021/03/02 06:25:30;;;;;;;22.98;11.30;;;-2.50;99.90;;;;;;8385019;28;20024;-67
2021/03/02 06:29:30;;;;;;;22.95;9.80;;;-2.40;99.90;;;;;;8374516;28;20119;-67
2021/03/02 06:33:31;;;;;;;21.92;10.02;;;-2.50;99.90;;;;;;8386904;28;20036;-67
2021/03/02 06:37:44;;;;;;;19.70;10.02;;;-2.40;99.90;;;;;;8390192;28;20581;-67
2021/03/02 06:41:44;;;;;;;24.30;10.38;;;-2.20;99.90;;;;;;8388558;28;20025;-67
2021/03/02 06:45:52;;;;;;;20.17;10.00;;;-2.00;99.90;;;;;;8388306;28;20016;-67
2021/03/02 06:49:52;;;;;;;19.63;9.20;;;-1.70;99.90;;;;;;8393098;28;20025;-67
2021/03/02 06:54:16;;;;;;;26.92;11.23;;;-1.30;99.90;;;;;;8382620;28;20086;-66
2021/03/02 06:58:18;;;;;;;24.20;10.68;;;-1.20;99.90;;;;;;8387567;28;20043;-66
2021/03/02 07:02:44;;;;;;;20.45;10.30;;;-0.70;99.90;;;;;;8381699;28;20668;-67
2021/03/02 07:06:49;;;;;;;19.77;11.13;;;-0.50;99.90;;;;;;8361679;28;20054;-67
2021/03/02 07:10:53;;;;;;;23.15;10.50;;;-0.30;99.90;;;;;;8383589;28;20020;-67
2021/03/02 07:14:53;;;;;;;23.45;11.18;;;-0.10;99.90;;;;;;8390104;28;20028;-67
2021/03/02 07:18:58;;;;;;;19.88;10.50;;;0.10;99.90;;;;;;8390335;28;20494;-67
2021/03/02 07:23:01;;;;;;;20.58;10.93;;;0.30;99.90;;;;;;8392259;28;20394;-67
2021/03/02 07:27:04;;;;;;;21.33;10.70;;;0.50;99.90;;;;;;8409428;28;20031;-68
2021/03/02 07:31:05;;;;;;;19.55;9.95;;;0.60;99.90;;;;;;8425120;28;20114;-67
2021/03/02 07:35:08;;;;;;;20.17;9.90;;;0.70;99.90;;;;;;8425675;28;20102;-67
2021/03/02 07:39:29;;;;;;;18.83;9.80;;;0.90;99.90;;;;;;8431579;28;20032;-68
2021/03/02 07:43:34;;;;;;;20.70;10.15;;;1.20;99.90;;;;;;8397348;28;20064;-67
2021/03/02 07:47:56;;;;;;;21.27;10.38;;;1.20;99.90;;;;;;8398376;28;20040;-68
2021/03/02 07:52:00;;;;;;;17.05;9.40;;;1.20;99.90;;;;;;8397684;28;20093;-68
2021/03/02 07:56:12;;;;;;;22.75;10.38;;;1.40;99.90;;;;;;8407034;28;20030;-68
2021/03/02 08:00:21;;;;;;;16.42;9.55;;;1.50;99.90;;;;;;8430273;28;20050;-68
2021/03/02 08:04:26;;;;;;;19.38;10.07;;;1.80;99.90;;;;;;8430059;28;20058;-67
2021/03/02 08:08:26;;;;;;;20.35;10.50;;;2.00;99.90;;;;;;8431656;28;20024;-68
2021/03/02 08:12:35;;;;;;;19.10;9.60;;;2.20;99.90;;;;;;8423926;28;20044;-68
2021/03/02 08:16:53;;;;;;;22.85;10.73;;;2.60;99.90;;;;;;8397350;28;20016;-68
2021/03/02 08:21:04;;;;;;;21.17;11.75;;;2.70;99.90;;;;;;8397584;28;20544;-68
2021/03/02 08:25:06;;;;;;;18.80;11.25;;;2.80;99.90;;;;;;8397667;28;20086;-68
2021/03/02 08:29:17;;;;;;;20.80;11.27;;;3.10;99.90;;;;;;8429484;28;20108;-68
2021/03/02 08:33:20;;;;;;;18.73;10.65;;;3.40;99.90;;;;;;8428111;28;20106;-68
2021/03/02 08:37:40;;;;;;;21.42;11.75;;;3.60;99.90;;;;;;8430386;28;20039;-68
2021/03/02 08:41:44;;;;;;;18.33;10.80;;;3.80;99.90;;;;;;8428929;28;20122;-66
2021/03/02 08:45:58;;;;;;;21.45;11.55;;;4.10;99.90;;;;;;8413531;28;20104;-68
2021/03/02 08:49:58;;;;;;;20.25;11.95;;;4.30;99.90;;;;;;8394452;28;20036;-68
2021/03/02 08:53:59;;;;;;;20.80;11.15;;;4.40;99.90;;;;;;8395470;28;20031;-68
2021/03/02 08:57:59;;;;;;;18.67;11.15;;;4.40;99.90;;;;;;8421844;28;20077;-67
2021/03/02 09:02:00;;;;;;;19.27;11.50;;;4.80;99.90;;;;;;8428498;28;20754;-68
2021/03/02 09:06:14;;;;;;;21.33;12.27;;;5.20;99.90;;;;;;8428926;28;20028;-68
2021/03/02 09:10:16;;;;;;;20.13;11.95;;;5.30;99.90;;;;;;8428221;28;20056;-68
2021/03/02 09:14:20;;;;;;;21.88;13.27;;;5.60;99.90;;;;;;8429243;28;20024;-68
2021/03/02 09:18:20;;;;;;;22.38;13.15;;;5.80;99.90;;;;;;8407170;28;20090;-67
2021/03/02 09:22:24;;;;;;;20.20;12.95;;;6.10;99.90;;;;;;8394036;28;20036;-67
2021/03/02 09:26:27;;;;;;;21.92;12.95;;;6.30;99.90;;;;;;8407899;28;20012;-68
2021/03/02 09:30:27;;;;;;;21.48;13.93;;;6.40;99.90;;;;;;8427644;28;20050;-68
2021/03/02 09:34:46;;;;;;;21.98;13.85;;;6.80;99.90;;;;;;8435910;22;20044;-74
2021/03/02 09:38:47;;;;;;;26.25;15.05;;;7.10;99.90;;;;;;8391232;28;20040;-74
2021/03/02 09:42:55;;;;;;;27.35;15.68;;;7.00;99.90;;;;;;8393405;28;20094;-74
2021/03/02 09:46:59;;;;;;;21.90;14.35;;;7.00;99.90;;;;;;8393249;28;20028;-74
2021/03/02 09:51:00;;;;;;;31.60;16.08;;;7.10;99.90;;;;;;8392147;28;20047;-74
2021/03/02 09:55:12;;;;;;;25.52;15.85;;;7.30;99.90;;;;;;8393405;28;20028;-74
2021/03/02 09:59:20;;;;;;;29.42;18.20;;;7.20;99.90;;;;;;8393090;28;20108;-74
2021/03/02 10:03:22;;;;;;;29.80;17.05;;;7.40;99.90;;;;;;8393466;28;20567;-73
2021/03/02 10:07:23;;;;;;;28.45;16.92;;;7.60;99.90;;;;;;8392863;28;20021;-73
2021/03/02 10:11:23;;;;;;;26.73;16.50;;;7.70;99.90;;;;;;8393998;28;20051;-73
2021/03/02 10:15:24;;;;;;;28.90;17.88;;;8.20;99.90;;;;;;8393982;28;20082;-73
2021/03/02 10:19:25;;;;;;;28.92;17.13;;;8.70;99.90;;;;;;8393542;28;20031;-73
2021/03/02 10:23:25;;;;;;;25.60;16.55;;;8.70;99.90;;;;;;8365161;28;20032;-73
2021/03/02 10:27:26;;;;;;;25.60;16.25;;;8.90;99.90;;;;;;8381760;28;20487;-73
2021/03/02 10:31:27;;;;;;;26.83;17.60;;;9.20;99.90;;;;;;8390878;28;20021;-74
2021/03/02 10:35:28;;;;;;;28.38;18.42;;;9.30;99.90;;;;;;8392811;28;20082;-73
2021/03/02 10:39:28;;;;;;;29.55;19.35;;;9.60;99.90;;;;;;8393407;28;20032;-74
2021/03/02 10:43:29;;;;;;;27.13;18.50;;;9.90;99.90;;;;;;8393175;28;20048;-74
2021/03/02 10:47:29;;;;;;;29.80;19.70;;;10.00;99.90;;;;;;8393261;28;20032;-74
2021/03/02 10:51:31;;;;;;;31.77;20.83;;;10.20;99.90;;;;;;8392753;28;20028;-74
2021/03/02 10:55:32;;;;;;;31.00;19.88;;;10.60;99.90;;;;;;8371457;28;20031;-74
2021/03/02 10:59:32;;;;;;;26.98;18.00;;;11.60;99.90;;;;;;8390197;28;20033;-74
2021/03/02 11:03:33;;;;;;;30.23;20.27;;;14.60;99.90;;;;;;8391542;28;20317;-74
2021/03/02 11:07:34;;;;;;;24.38;17.10;;;17.40;94.50;;;;;;8391448;28;20025;-73
2021/03/02 11:11:34;;;;;;;29.52;18.05;;;16.80;90.40;;;;;;8390740;28;20024;-74
2021/03/02 11:15:35;;;;;;;25.77;20.07;;;19.50;77.00;;;;;;8391617;28;20413;-74
2021/03/02 11:19:35;;;;;;;21.30;16.30;;;22.00;60.90;;;;;;8392783;28;20314;-74
2021/03/02 11:23:36;;;;;;;20.65;15.75;;;23.80;51.10;;;;;;8392261;28;20336;-74
2021/03/02 11:27:36;;;;;;;22.83;16.33;;;22.90;49.00;;;;;;8388212;28;20021;-74
2021/03/02 11:31:37;;;;;;;23.98;16.63;;;23.40;47.00;;;;;;8389954;28;20446;-74
2021/03/02 11:35:38;;;;;;;19.45;15.73;;;23.10;50.80;;;;;;8391890;28;20108;-74
2021/03/02 11:39:38;;;;;;;19.00;15.05;;;23.40;46.10;;;;;;8390932;28;20044;-74
2021/03/02 11:43:39;;;;;;;18.98;15.55;;;24.70;43.50;;;;;;8390958;28;20078;-74
2021/03/02 11:47:39;;;;;;;21.52;15.10;;;26.00;40.80;;;;;;8391051;28;20627;-75
2021/03/02 11:51:40;;;;;;;18.40;13.90;;;26.40;40.30;;;;;;8390369;28;20020;-74
2021/03/02 11:55:40;;;;;;;19.80;15.23;;;27.40;36.40;;;;;;8391363;28;20257;-75
2021/03/02 11:59:41;;;;;;;17.15;13.55;;;28.10;36.70;;;;;;8387145;28;20349;-75
2021/03/02 12:03:42;;;;;;;17.35;14.07;;;28.60;34.00;;;;;;8371368;28;20029;-75
2021/03/02 12:07:42;;;;;;;21.45;14.55;;;29.40;33.60;;;;;;8374934;28;20024;-75
2021/03/02 12:11:44;;;;;;;25.00;14.18;;;29.90;32.70;;;;;;8374032;28;20373;-74
2021/03/02 12:15:44;;;;;;;17.92;14.85;;;29.80;32.70;;;;;;8373892;28;20028;-74
2021/03/02 12:19:45;;;;;;;17.17;14.23;;;28.90;33.10;;;;;;8375244;28;20078;-75
2021/03/02 12:23:45;;;;;;;17.58;13.70;;;28.50;33.70;;;;;;8371902;28;20025;-74
2021/03/02 12:27:46;;;;;;;19.70;13.88;;;28.60;33.30;;;;;;8379702;28;20187;-74
2021/03/02 12:31:47;;;;;;;18.52;14.35;;;30.00;32.20;;;;;;8385104;28;20078;-74
2021/03/02 12:35:47;;;;;;;14.82;12.48;;;32.70;29.60;;;;;;8386374;28;20119;-74
2021/03/02 12:39:48;;;;;;;15.43;13.57;;;32.40;29.20;;;;;;8380654;28;20032;-73
2021/03/02 12:43:48;;;;;;;14.73;12.65;;;31.50;29.80;;;;;;8386508;28;20107;-73
2021/03/02 12:47:49;;;;;;;15.00;13.40;;;31.90;29.10;;;;;;8387272;28;20118;-75
2021/03/02 12:51:49;;;;;;;14.18;12.68;;;33.80;27.60;;;;;;8378920;28;20032;-75
2021/03/02 12:55:50;;;;;;;15.93;12.73;;;33.00;27.80;;;;;;8369394;28;20067;-75
2021/03/02 12:59:50;;;;;;;14.02;12.48;;;32.00;28.60;;;;;;8370516;28;20119;-76
2021/03/02 13:03:56;;;;;;;14.52;12.30;;;31.70;27.80;;;;;;8359094;28;20025;-75
2021/03/02 13:07:58;;;;;;;16.63;13.00;;;31.00;29.40;;;;;;8378363;28;20051;-75
2021/03/02 13:11:58;;;;;;;14.43;12.48;;;29.60;29.70;;;;;;8384475;28;20032;-76
2021/03/02 13:15:59;;;;;;;14.32;11.10;;;31.80;28.30;;;;;;8367731;28;20082;-76
2021/03/02 13:20:00;;;;;;;13.30;10.68;;;32.90;26.70;;;;;;8359366;28;20028;-75
2021/03/02 13:24:00;;;;;;;13.73;11.48;;;34.40;25.00;;;;;;8360293;28;20116;-73
2021/03/02 13:28:04;;;;;;;16.27;12.25;;;34.80;25.80;;;;;;8387314;28;20061;-73
2021/03/02 13:32:05;;;;;;;13.98;12.48;;;36.70;24.00;;;;;;8377149;28;20033;-73
2021/03/02 13:36:07;;;;;;;14.32;11.07;;;36.80;23.80;;;;;;8358428;28;20376;-73
2021/03/02 13:40:08;;;;;;;13.90;11.27;;;36.80;23.70;;;;;;8361082;28;20078;-75
2021/03/02 13:44:08;;;;;;;10.75;9.15;;;34.40;25.10;;;;;;8364779;28;20020;-75
2021/03/02 13:48:09;;;;;;;13.77;9.98;;;34.70;23.20;;;;;;8391317;28;20039;-74
2021/03/02 13:52:11;;;;;;;16.30;9.50;;;35.10;23.00;;;;;;8385570;28;20036;-75
2021/03/02 13:56:12;;;;;;;12.43;9.35;;;35.60;22.90;;;;;;8374085;28;20012;-75
2021/03/02 14:00:21;;;;;;;11.32;8.45;;;35.50;22.50;;;;;;8366911;28;20067;-75
2021/03/02 14:04:22;;;;;;;7.80;6.80;;;35.80;21.30;;;;;;8377997;28;20094;-75
2021/03/02 14:08:23;;;;;;;8.27;7.07;;;37.00;19.80;;;;;;8392298;28;20130;-75
2021/03/02 14:12:23;;;;;;;8.07;6.95;;;37.10;19.30;;;;;;8367176;28;20025;-75
2021/03/02 14:16:27;;;;;;;10.88;7.20;;;35.80;19.40;;;;;;8371653;28;20067;-75
2021/03/02 14:20:29;;;;;;;8.82;7.90;;;35.40;20.40;;;;;;8372192;28;20051;-74
2021/03/02 14:24:30;;;;;;;11.32;8.13;;;34.90;20.10;;;;;;8379554;28;20107;-74
2021/03/02 14:28:30;;;;;;;10.80;8.05;;;30.60;22.90;;;;;;8374887;28;20082;-74
2021/03/02 14:32:32;;;;;;;11.27;9.10;;;26.80;25.80;;;;;;8381139;28;20020;-74
2021/03/02 14:36:33;;;;;;;13.02;9.13;;;24.30;27.60;;;;;;8372714;28;20074;-74
2021/03/02 14:40:34;;;;;;;11.50;9.15;;;22.60;30.20;;;;;;8374836;28;20102;-74
2021/03/02 14:44:37;;;;;;;12.95;9.52;;;21.50;32.50;;;;;;8375319;28;20048;-74
2021/03/02 14:48:45;;;;;;;13.57;9.10;;;20.30;34.60;;;;;;8377522;28;20028;-74
2021/03/02 14:52:47;;;;;;;14.02;9.73;;;19.40;37.70;;;;;;8373425;28;20028;-74
2021/03/02 14:56:48;;;;;;;13.60;9.13;;;18.70;39.70;;;;;;8377367;28;20489;-74
2021/03/02 15:00:54;;;;;;;9.80;7.20;;;18.40;38.70;;;;;;8376370;28;20112;-74
2021/03/02 15:04:56;;;;;;;13.07;8.07;;;17.90;37.30;;;;;;8371379;28;20056;-73
2021/03/02 15:08:57;;;;;;;10.45;7.28;;;17.50;38.10;;;;;;8371727;28;20028;-74
2021/03/02 15:12:58;;;;;;;9.55;6.72;;;17.10;37.70;;;;;;8374376;28;20078;-74
2021/03/02 15:16:59;;;;;;;9.93;7.00;;;16.90;38.40;;;;;;8373253;28;20414;-74
2021/03/02 15:21:00;;;;;;;13.73;7.90;;;16.80;39.90;;;;;;8375256;28;20082;-74
2021/03/02 15:25:01;;;;;;;11.40;7.38;;;16.90;39.70;;;;;;8379533;28;20021;-74
2021/03/02 15:29:02;;;;;;;13.65;7.70;;;16.50;44.90;;;;;;8363191;28;20514;-74
2021/03/02 15:33:03;;;;;;;9.95;5.55;;;16.30;42.20;;;;;;8388687;28;20028;-74
2021/03/02 15:37:07;;;;;;;12.48;5.22;;;16.20;39.10;;;;;;8380766;28;20033;-73
2021/03/02 15:41:08;;;;;;;12.52;5.88;;;16.10;38.00;;;;;;8411190;22;20090;-69
2021/03/02 15:45:11;;;;;;;11.18;6.20;;;15.90;38.00;;;;;;8390731;28;20483;-68
2021/03/02 15:49:12;;;;;;;14.45;6.55;;;15.80;39.30;;;;;;8384718;28;20029;-70
2021/03/02 15:53:14;;;;;;;11.85;7.07;;;15.70;40.40;;;;;;8375604;28;20033;-69
2021/03/02 15:57:15;;;;;;;12.13;6.78;;;15.60;44.20;;;;;;8384500;28;20028;-68
2021/03/02 16:01:16;;;;;;;10.50;6.78;;;15.10;46.20;;;;;;8392953;28;20025;-68
2021/03/02 16:05:22;;;;;;;10.55;6.93;;;14.80;46.00;;;;;;8385451;28;20036;-68
2021/03/02 16:09:33;;;;;;;12.95;6.25;;;14.90;44.60;;;;;;8383192;28;20477;-71
2021/03/02 16:13:38;;;;;;;21.60;7.15;;;14.80;43.10;;;;;;8384163;28;20025;-72
2021/03/02 16:17:40;;;;;;;17.05;7.35;;;14.80;43.70;;;;;;8382179;28;20446;-72
2021/03/02 16:21:44;;;;;;;20.02;7.07;;;14.80;44.00;;;;;;8384111;28;20123;-71
2021/03/02 16:25:46;;;;;;;13.70;6.50;;;14.30;46.70;;;;;;8385552;28;20056;-72
2021/03/02 16:29:48;;;;;;;20.45;7.63;;;13.90;46.80;;;;;;8380941;28;20032;-72
2021/03/02 16:33:49;;;;;;;14.95;6.78;;;13.70;49.60;;;;;;8374682;28;20062;-72
2021/03/02 16:37:50;;;;;;;25.92;8.02;;;13.40;49.80;;;;;;8374996;28;20025;-73
2021/03/02 16:41:52;;;;;;;17.65;6.75;;;13.40;50.70;;;;;;8382052;28;20035;-69
2021/03/02 16:46:00;;;;;;;20.15;7.60;;;12.90;54.50;;;;;;8384872;28;20722;-71
2021/03/02 16:50:09;;;;;;;17.25;6.82;;;12.50;57.20;;;;;;8364371;28;20082;-72
2021/03/02 16:54:12;;;;;;;12.77;7.30;;;12.10;59.00;;;;;;8373412;28;20461;-71
2021/03/02 16:58:44;;;;;;;15.85;6.22;;;12.00;58.90;;;;;;8392393;28;20497;-71
2021/03/02 17:03:08;;;;;;;19.17;7.22;;;11.50;60.90;;;;;;8375564;28;20032;-71
2021/03/02 17:07:11;;;;;;;30.52;11.52;;;11.00;61.80;;;;;;8387148;28;20082;-73
2021/03/02 17:11:11;;;;;;;30.98;10.88;;;10.50;66.70;;;;;;8376691;28;20028;-71
2021/03/02 17:15:13;;;;;;;37.08;11.38;;;10.20;70.00;;;;;;8370991;28;20028;-71
2021/03/02 17:19:13;;;;;;;23.95;10.98;;;10.00;70.30;;;;;;8373372;28;20040;-71
2021/03/02 17:23:14;;;;;;;43.45;15.15;;;9.80;70.70;;;;;;8380949;28;20032;-71
2021/03/02 17:27:14;;;;;;;30.63;16.08;;;9.30;75.70;;;;;;8379604;28;20021;-71
2021/03/02 17:31:15;;;;;;;29.58;14.23;;;9.00;80.50;;;;;;8375537;28;20090;-71
2021/03/02 17:35:16;;;;;;;30.20;13.57;;;8.70;84.90;;;;;;8386878;28;20090;-71
2021/03/02 17:39:16;;;;;;;36.17;12.45;;;8.50;88.80;;;;;;8385142;28;21404;-68
2021/03/02 17:43:18;;;;;;;26.30;12.75;;;8.50;90.00;;;;;;8369051;28;20044;-71
2021/03/02 17:47:18;;;;;;;21.67;9.60;;;8.10;91.60;;;;;;8378839;28;20029;-66
2021/03/02 17:51:19;;;;;;;17.35;7.90;;;7.70;93.40;;;;;;8375916;28;20036;-71
2021/03/02 17:55:19;;;;;;;13.02;7.63;;;7.70;97.20;;;;;;8373467;28;20067;-68
2021/03/02 17:59:20;;;;;;;16.05;8.70;;;7.70;98.50;;;;;;8375923;28;20078;-68
2021/03/02 18:03:23;;;;;;;23.27;9.73;;;7.40;99.90;;;;;;8372892;28;20107;-69
2021/03/02 18:07:23;;;;;;;21.13;9.10;;;6.90;99.90;;;;;;8370499;28;20036;-69
2021/03/02 18:11:24;;;;;;;15.73;9.00;;;6.70;99.90;;;;;;8370773;28;20038;-70
2021/03/02 18:15:24;;;;;;;24.58;10.00;;;6.40;99.90;;;;;;8367517;28;20028;-70
2021/03/02 18:19:25;;;;;;;27.00;13.02;;;6.10;99.90;;;;;;8369050;28;20032;-68
2021/03/02 18:23:26;;;;;;;25.30;11.32;;;5.90;99.90;;;;;;8379257;28;20043;-67
2021/03/02 18:27:27;;;;;;;16.20;7.70;;;6.10;99.90;;;;;;8380419;28;20403;-70
2021/03/02 18:31:27;;;;;;;21.65;9.07;;;5.90;99.90;;;;;;8382500;28;20070;-69
2021/03/02 18:35:28;;;;;;;20.55;10.43;;;5.60;99.90;;;;;;8384063;28;20032;-68
2021/03/02 18:39:28;;;;;;;18.23;9.85;;;5.50;99.90;;;;;;8375158;28;20078;-68
2021/03/02 18:43:31;;;;;;;35.58;17.50;;;5.40;99.90;;;;;;8386483;28;20517;-70
2021/03/02 18:47:32;;;;;;;30.55;15.35;;;5.30;99.90;;;;;;8388056;28;20115;-70
2021/03/02 18:51:32;;;;;;;24.15;11.57;;;5.20;99.90;;;;;;8384754;28;20040;-69
2021/03/02 18:55:33;;;;;;;22.30;12.07;;;5.00;99.90;;;;;;8384196;28;20024;-70
2021/03/02 18:59:34;;;;;;;26.65;13.02;;;4.80;99.90;;;;;;8384292;28;20025;-69
2021/03/02 19:03:34;;;;;;;24.77;11.82;;;4.80;99.90;;;;;;8384912;28;20051;-69
2021/03/02 19:07:35;;;;;;;19.10;11.02;;;4.80;99.90;;;;;;8380320;28;20024;-72
2021/03/02 19:11:35;;;;;;;27.38;13.57;;;4.80;99.90;;;;;;8383610;28;20034;-74
2021/03/02 19:15:36;;;;;;;22.75;13.05;;;4.60;99.90;;;;;;8382070;28;20636;-74
2021/03/02 19:19:37;;;;;;;24.02;11.60;;;4.70;99.90;;;;;;8380420;28;20518;-72
2021/03/02 19:23:37;;;;;;;22.33;12.07;;;4.60;99.90;;;;;;8383246;28;20747;-74
2021/03/02 19:27:38;;;;;;;21.00;10.85;;;4.40;99.90;;;;;;8384958;28;20032;-74
2021/03/02 19:31:39;;;;;;;18.38;10.52;;;4.30;99.90;;;;;;8382871;28;20099;-70
2021/03/02 19:35:39;;;;;;;25.25;12.75;;;4.30;99.90;;;;;;8390898;28;20025;-70
2021/03/02 19:39:41;;;;;;;29.20;16.33;;;4.00;99.90;;;;;;8389512;28;20626;-68
2021/03/02 19:43:42;;;;;;;24.95;13.05;;;3.90;99.90;;;;;;8391074;28;20021;-70
2021/03/02 19:47:43;;;;;;;31.92;15.25;;;3.70;99.90;;;;;;8390711;28;20032;-71
2021/03/02 19:51:43;;;;;;;31.80;15.40;;;3.60;99.90;;;;;;8392060;28;20119;-69
2021/03/02 19:55:44;;;;;;;27.20;15.60;;;3.60;99.90;;;;;;8391422;28;20029;-68
2021/03/02 19:59:45;;;;;;;26.05;14.77;;;3.60;99.90;;;;;;8389877;28;20573;-67
2021/03/02 20:03:46;;;;;;;31.65;15.52;;;3.60;99.90;;;;;;8390268;28;20032;-67
2021/03/02 20:07:46;;;;;;;35.42;16.42;;;3.50;99.90;;;;;;8384026;28;20033;-69
2021/03/02 20:11:47;;;;;;;30.38;16.60;;;3.70;99.90;;;;;;8376335;28;20032;-69
2021/03/02 20:15:48;;;;;;;25.58;13.95;;;3.60;99.90;;;;;;8380733;28;20029;-69
2021/03/02 20:19:50;;;;;;;23.35;13.35;;;3.20;99.90;;;;;;8381345;28;20024;-69
2021/03/02 20:23:50;;;;;;;22.73;12.63;;;3.00;99.90;;;;;;8379334;28;20040;-70
2021/03/02 20:27:52;;;;;;;28.20;12.63;;;2.90;99.90;;;;;;8383782;28;20123;-69
2021/03/02 20:31:52;;;;;;;27.00;14.45;;;2.70;99.90;;;;;;8387078;28;20629;-69
2021/03/02 20:35:53;;;;;;;31.27;14.48;;;2.60;99.90;;;;;;8390833;28;20028;-68
2021/03/02 20:39:54;;;;;;;24.38;12.15;;;2.50;99.90;;;;;;8391735;28;20174;-70
2021/03/02 20:43:54;;;;;;;26.15;12.90;;;2.60;99.90;;;;;;8388827;28;20060;-71